Terminal Aerodrome Forecast
Issued by NWS Blacksburg, VA

Home | Current Version | Previous Version | Text Only | Print | Product List | Glossary On
Versions: 1 2 3 4 5 6 7 8 9 10 11 12 13 14 15 16 17 18 19 20 21 22 23 24
000
FTUS41 KRNK 041729
TAFDAN
TAF
KDAN 041729Z 0418/0518 23008KT P6SM VCTS BKN040CB
     FM050200 VRB03KT P6SM BKN250
     FM051400 30007KT P6SM SCT045=

USA.gov is the U.S. government's official web portal to all federal, state and local government web resources and services.